Terminal Aerodrome Forecast
Issued by NWS

Home | Current Version | Previous Version | Text Only | Print | Product List | Glossary On
Versions: 1 2 3 4 5 6 7 8 9 10 11 12 13 14 15 16 17 18 19 20 21 22 23 24 25 26 27 28
000
FTUS43 KDDC 260520
TAFHYS
TAF
KHYS 260520Z 2606/2706 17015KT P6SM SCT250
     FM260800 24011KT P6SM -TSRA SCT090 BKN150CB
     FM261000 19010KT P6SM SCT200 WS020/21040KT
     FM261300 19011KT P6SM SCT200
     FM261800 26014KT P6SM VCTS SCT200CB
     FM262300 35012KT P6SM VCTS BKN140CB=

USA.gov is the U.S. government's official web portal to all federal, state and local government web resources and services.